sensor_id;sensor_type;location;lat;lon;timestamp;P1;durP1;ratioP1;P2;durP2;ratioP2
1753;SDS011;58380;48.312;9.246;2022-12-05T07:47:37;23.13;;;11.57;;
1753;SDS011;58380;48.312;9.246;2022-12-05T07:50:03;26.57;;;13.30;;
1753;SDS011;58380;48.312;9.246;2022-12-05T07:54:54;22.15;;;10.82;;
1753;SDS011;58380;48.312;9.246;2022-12-05T07:57:20;24.07;;;12.03;;
1753;SDS011;58380;48.312;9.246;2022-12-05T07:59:45;23.80;;;11.63;;
1753;SDS011;58380;48.312;9.246;2022-12-05T08:02:11;21.90;;;11.03;;
1753;SDS011;58380;48.312;9.246;2022-12-05T08:04:36;21.33;;;10.03;;
1753;SDS011;58380;48.312;9.246;2022-12-05T08:07:02;25.53;;;12.70;;
1753;SDS011;58380;48.312;9.246;2022-12-05T08:09:27;22.40;;;10.03;;
1753;SDS011;58380;48.312;9.246;2022-12-05T08:11:52;26.07;;;13.03;;
1753;SDS011;58380;48.312;9.246;2022-12-05T08:14:18;22.13;;;10.97;;
1753;SDS011;58380;48.312;9.246;2022-12-05T08:16:44;19.33;;;9.98;;
1753;SDS011;58380;48.312;9.246;2022-12-05T08:19:10;19.07;;;8.80;;
1753;SDS011;58380;48.312;9.246;2022-12-05T08:21:37;23.08;;;11.25;;
1753;SDS011;58380;48.312;9.246;2022-12-05T08:24:04;26.30;;;13.05;;
1753;SDS011;58380;48.312;9.246;2022-12-05T08:26:31;24.55;;;11.32;;
1753;SDS011;58380;48.312;9.246;2022-12-05T08:29:04;24.65;;;10.88;;
1753;SDS011;58380;48.312;9.246;2022-12-05T08:31:41;21.67;;;9.95;;
1753;SDS011;58380;48.312;9.246;2022-12-05T08:34:13;24.33;;;11.60;;
1753;SDS011;58380;48.312;9.246;2022-12-05T08:36:40;24.88;;;11.82;;
1753;SDS011;58380;48.312;9.246;2022-12-05T08:39:07;24.15;;;10.98;;
1753;SDS011;58380;48.312;9.246;2022-12-05T08:41:38;22.77;;;10.60;;
1753;SDS011;58380;48.312;9.246;2022-12-05T08:44:04;22.83;;;10.00;;
1753;SDS011;58380;48.312;9.246;2022-12-05T08:46:32;20.90;;;9.60;;
1753;SDS011;58380;48.312;9.246;2022-12-05T08:49:04;20.08;;;9.15;;
1753;SDS011;58380;48.312;9.246;2022-12-05T08:51:30;18.75;;;10.05;;
1753;SDS011;58380;48.312;9.246;2022-12-05T08:53:56;18.77;;;8.63;;
1753;SDS011;58380;48.312;9.246;2022-12-05T08:56:21;23.57;;;11.67;;
1753;SDS011;58380;48.312;9.246;2022-12-05T08:58:47;18.73;;;9.68;;
1753;SDS011;58380;48.312;9.246;2022-12-05T09:01:14;19.20;;;8.33;;
1753;SDS011;58380;48.312;9.246;2022-12-05T09:03:45;19.23;;;9.45;;
1753;SDS011;58380;48.312;9.246;2022-12-05T09:06:15;21.17;;;9.02;;
1753;SDS011;58380;48.312;9.246;2022-12-05T09:08:46;26.00;;;10.98;;
1753;SDS011;58380;48.312;9.246;2022-12-05T09:11:17;19.80;;;9.48;;
1753;SDS011;58380;48.312;9.246;2022-12-05T09:13:50;23.43;;;10.03;;
1753;SDS011;58380;48.312;9.246;2022-12-05T09:16:38;13.63;;;7.57;;
1753;SDS011;58380;48.312;9.246;2022-12-05T09:19:04;14.85;;;7.63;;
1753;SDS011;58380;48.312;9.246;2022-12-05T09:21:40;15.77;;;7.50;;
1753;SDS011;58380;48.312;9.246;2022-12-05T09:24:08;14.77;;;7.30;;
1753;SDS011;58380;48.312;9.246;2022-12-05T09:26:35;12.15;;;6.40;;
1753;SDS011;58380;48.312;9.246;2022-12-05T09:29:01;12.10;;;6.40;;
1753;SDS011;58380;48.312;9.246;2022-12-05T09:31:27;9.68;;;5.85;;
1753;SDS011;58380;48.312;9.246;2022-12-05T09:33:54;9.80;;;5.57;;
1753;SDS011;58380;48.312;9.246;2022-12-05T09:36:27;9.45;;;5.30;;
1753;SDS011;58380;48.312;9.246;2022-12-05T09:38:58;9.52;;;5.43;;
1753;SDS011;58380;48.312;9.246;2022-12-05T09:41:52;9.70;;;5.65;;
1753;SDS011;58380;48.312;9.246;2022-12-05T09:51:00;7.88;;;4.30;;
1753;SDS011;58380;48.312;9.246;2022-12-05T09:53:28;7.82;;;4.22;;
1753;SDS011;58380;48.312;9.246;2022-12-05T09:56:03;8.15;;;4.25;;
1753;SDS011;58380;48.312;9.246;2022-12-05T09:58:44;6.40;;;3.75;;
1753;SDS011;58380;48.312;9.246;2022-12-05T10:04:06;7.32;;;3.80;;
1753;SDS011;58380;48.312;9.246;2022-12-05T10:15:30;5.65;;;3.05;;
1753;SDS011;58380;48.312;9.246;2022-12-05T10:18:09;7.55;;;4.05;;
1753;SDS011;58380;48.312;9.246;2022-12-05T10:21:16;10.38;;;4.18;;
1753;SDS011;58380;48.312;9.246;2022-12-05T10:23:58;6.10;;;3.33;;
1753;SDS011;58380;48.312;9.246;2022-12-05T10:26:30;6.32;;;2.95;;
1753;SDS011;58380;48.312;9.246;2022-12-05T10:29:05;6.60;;;3.15;;
1753;SDS011;58380;48.312;9.246;2022-12-05T10:31:49;6.63;;;2.83;;
1753;SDS011;58380;48.312;9.246;2022-12-05T10:34:32;5.78;;;2.80;;
1753;SDS011;58380;48.312;9.246;2022-12-05T10:37:13;10.25;;;4.15;;
1753;SDS011;58380;48.312;9.246;2022-12-05T10:39:48;7.22;;;4.28;;
1753;SDS011;58380;48.312;9.246;2022-12-05T10:42:23;8.02;;;4.40;;
1753;SDS011;58380;48.312;9.246;2022-12-05T10:44:56;4.97;;;2.95;;
1753;SDS011;58380;48.312;9.246;2022-12-05T10:47:29;6.85;;;3.30;;
1753;SDS011;58380;48.312;9.246;2022-12-05T10:49:57;7.07;;;3.65;;
1753;SDS011;58380;48.312;9.246;2022-12-05T10:52:30;8.95;;;4.40;;
1753;SDS011;58380;48.312;9.246;2022-12-05T10:54:57;6.00;;;3.70;;
1753;SDS011;58380;48.312;9.246;2022-12-05T10:57:28;7.80;;;3.97;;
1753;SDS011;58380;48.312;9.246;2022-12-05T10:59:54;6.35;;;3.85;;
1753;SDS011;58380;48.312;9.246;2022-12-05T11:02:22;6.93;;;3.90;;
1753;SDS011;58380;48.312;9.246;2022-12-05T11:04:57;8.25;;;4.65;;
1753;SDS011;58380;48.312;9.246;2022-12-05T11:07:35;8.23;;;4.30;;
1753;SDS011;58380;48.312;9.246;2022-12-05T11:10:20;9.48;;;4.50;;
1753;SDS011;58380;48.312;9.246;2022-12-05T11:12:49;7.63;;;4.25;;
1753;SDS011;58380;48.312;9.246;2022-12-05T11:17:43;7.88;;;4.28;;
1753;SDS011;58380;48.312;9.246;2022-12-05T11:22:42;8.20;;;4.38;;
1753;SDS011;58380;48.312;9.246;2022-12-05T11:25:28;12.93;;;6.05;;
1753;SDS011;58380;48.312;9.246;2022-12-05T11:30:26;14.82;;;7.68;;
1753;SDS011;58380;48.312;9.246;2022-12-05T11:33:26;18.85;;;9.65;;
1753;SDS011;58380;48.312;9.246;2022-12-05T11:35:48;9.10;;;4.82;;
1753;SDS011;58380;48.312;9.246;2022-12-05T11:38:18;14.18;;;7.60;;
1753;SDS011;58380;48.312;9.246;2022-12-05T11:40:57;21.15;;;11.20;;
1753;SDS011;58380;48.312;9.246;2022-12-05T11:53:05;10.82;;;6.25;;
1753;SDS011;58380;48.312;9.246;2022-12-05T12:01:16;9.95;;;5.40;;
1753;SDS011;58380;48.312;9.246;2022-12-05T12:12:48;9.35;;;5.65;;
1753;SDS011;58380;48.312;9.246;2022-12-05T12:16:01;9.95;;;5.50;;
1753;SDS011;58380;48.312;9.246;2022-12-05T12:24:52;10.07;;;5.22;;
1753;SDS011;58380;48.312;9.246;2022-12-05T12:30:50;8.75;;;4.32;;
1753;SDS011;58380;48.312;9.246;2022-12-05T12:36:11;9.73;;;5.40;;
1753;SDS011;58380;48.312;9.246;2022-12-05T12:44:51;10.18;;;5.63;;
1753;SDS011;58380;48.312;9.246;2022-12-05T13:01:36;11.70;;;6.63;;
1753;SDS011;58380;48.312;9.246;2022-12-05T13:04:14;9.85;;;5.32;;
1753;SDS011;58380;48.312;9.246;2022-12-05T13:07:04;9.18;;;4.70;;
1753;SDS011;58380;48.312;9.246;2022-12-05T13:09:53;8.43;;;4.28;;
1753;SDS011;58380;48.312;9.246;2022-12-05T13:12:24;10.32;;;5.18;;
1753;SDS011;58380;48.312;9.246;2022-12-05T13:15:04;9.25;;;4.22;;
1753;SDS011;58380;48.312;9.246;2022-12-05T13:17:44;10.27;;;5.28;;
1753;SDS011;58380;48.312;9.246;2022-12-05T13:20:17;10.05;;;5.75;;
1753;SDS011;58380;48.312;9.246;2022-12-05T13:22:47;9.43;;;5.00;;
1753;SDS011;58380;48.312;9.246;2022-12-05T13:25:16;12.63;;;6.25;;
1753;SDS011;58380;48.312;9.246;2022-12-05T13:27:52;10.40;;;5.53;;
1753;SDS011;58380;48.312;9.246;2022-12-05T13:30:23;7.25;;;4.55;;
1753;SDS011;58380;48.312;9.246;2022-12-05T13:33:03;8.52;;;4.72;;
1753;SDS011;58380;48.312;9.246;2022-12-05T13:35:34;11.43;;;5.40;;
1753;SDS011;58380;48.312;9.246;2022-12-05T13:38:21;17.05;;;6.93;;
1753;SDS011;58380;48.312;9.246;2022-12-05T13:41:15;21.63;;;9.60;;
1753;SDS011;58380;48.312;9.246;2022-12-05T13:43:59;11.48;;;5.88;;
1753;SDS011;58380;48.312;9.246;2022-12-05T13:46:37;9.38;;;5.38;;
1753;SDS011;58380;48.312;9.246;2022-12-05T13:51:48;11.10;;;5.70;;
1753;SDS011;58380;48.312;9.246;2022-12-05T13:54:16;10.82;;;5.40;;
1753;SDS011;58380;48.312;9.246;2022-12-05T13:56:52;9.18;;;4.72;;
1753;SDS011;58380;48.312;9.246;2022-12-05T14:10:14;13.35;;;6.20;;
1753;SDS011;58380;48.312;9.246;2022-12-05T14:15:23;19.92;;;8.60;;
1753;SDS011;58380;48.312;9.246;2022-12-05T14:17:53;12.68;;;5.95;;
1753;SDS011;58380;48.312;9.246;2022-12-05T14:23:38;14.88;;;6.63;;
1753;SDS011;58380;48.312;9.246;2022-12-05T14:34:54;14.90;;;6.57;;
1753;SDS011;58380;48.312;9.246;2022-12-05T14:37:35;12.60;;;6.82;;
1753;SDS011;58380;48.312;9.246;2022-12-05T14:43:02;12.13;;;5.93;;
1753;SDS011;58380;48.312;9.246;2022-12-05T14:53:14;13.23;;;6.75;;
1753;SDS011;58380;48.312;9.246;2022-12-05T15:09:29;17.42;;;8.13;;
1753;SDS011;58380;48.312;9.246;2022-12-05T15:15:30;10.63;;;6.07;;
1753;SDS011;58380;48.312;9.246;2022-12-05T15:20:58;11.90;;;6.15;;
1753;SDS011;58380;48.312;9.246;2022-12-05T15:23:39;9.90;;;5.72;;
1753;SDS011;58380;48.312;9.246;2022-12-05T15:26:13;14.07;;;6.90;;
1753;SDS011;58380;48.312;9.246;2022-12-05T15:29:03;9.98;;;6.00;;
1753;SDS011;58380;48.312;9.246;2022-12-05T15:31:32;10.82;;;5.68;;
1753;SDS011;58380;48.312;9.246;2022-12-05T15:34:16;9.35;;;5.50;;
1753;SDS011;58380;48.312;9.246;2022-12-05T15:37:07;23.52;;;10.50;;
1753;SDS011;58380;48.312;9.246;2022-12-05T15:42:18;33.53;;;15.63;;
1753;SDS011;58380;48.312;9.246;2022-12-05T15:44:47;44.28;;;18.80;;
1753;SDS011;58380;48.312;9.246;2022-12-05T15:47:23;25.30;;;12.37;;
1753;SDS011;58380;48.312;9.246;2022-12-05T15:49:49;21.77;;;10.23;;
1753;SDS011;58380;48.312;9.246;2022-12-05T15:55:07;17.15;;;8.15;;
1753;SDS011;58380;48.312;9.246;2022-12-05T15:57:42;21.48;;;9.70;;
1753;SDS011;58380;48.312;9.246;2022-12-05T16:00:19;11.05;;;6.05;;
1753;SDS011;58380;48.312;9.246;2022-12-05T16:02:54;11.80;;;6.43;;
1753;SDS011;58380;48.312;9.246;2022-12-05T16:05:32;11.77;;;6.00;;
1753;SDS011;58380;48.312;9.246;2022-12-05T16:08:05;11.80;;;6.32;;
1753;SDS011;58380;48.312;9.246;2022-12-05T16:10:32;12.90;;;6.07;;
1753;SDS011;58380;48.312;9.246;2022-12-05T16:13:06;11.02;;;5.80;;
1753;SDS011;58380;48.312;9.246;2022-12-05T16:15:41;10.50;;;5.28;;
1753;SDS011;58380;48.312;9.246;2022-12-05T16:18:22;9.13;;;4.97;;
1753;SDS011;58380;48.312;9.246;2022-12-05T16:20:52;12.70;;;6.10;;
1753;SDS011;58380;48.312;9.246;2022-12-05T16:25:49;17.55;;;8.48;;
1753;SDS011;58380;48.312;9.246;2022-12-05T16:30:58;14.10;;;6.68;;
1753;SDS011;58380;48.312;9.246;2022-12-05T16:33:27;14.95;;;7.43;;
1753;SDS011;58380;48.312;9.246;2022-12-05T16:35:55;15.60;;;7.55;;
1753;SDS011;58380;48.312;9.246;2022-12-05T16:38:30;14.40;;;7.85;;
1753;SDS011;58380;48.312;9.246;2022-12-05T16:40:59;17.55;;;9.65;;
1753;SDS011;58380;48.312;9.246;2022-12-05T16:46:42;28.10;;;13.63;;
1753;SDS011;58380;48.312;9.246;2022-12-05T16:48:45;18.63;;;9.32;;
1753;SDS011;58380;48.312;9.246;2022-12-05T16:51:58;14.80;;;8.68;;
1753;SDS011;58380;48.312;9.246;2022-12-05T16:54:31;26.17;;;14.85;;
1753;SDS011;58380;48.312;9.246;2022-12-05T16:56:57;24.52;;;12.23;;
1753;SDS011;58380;48.312;9.246;2022-12-05T16:59:32;14.88;;;7.95;;
1753;SDS011;58380;48.312;9.246;2022-12-05T17:02:01;13.95;;;8.30;;
1753;SDS011;58380;48.312;9.246;2022-12-05T17:04:28;14.77;;;7.13;;
1753;SDS011;58380;48.312;9.246;2022-12-05T17:06:55;12.32;;;7.13;;
1753;SDS011;58380;48.312;9.246;2022-12-05T17:09:21;15.55;;;8.32;;
1753;SDS011;58380;48.312;9.246;2022-12-05T17:11:47;17.58;;;9.40;;
1753;SDS011;58380;48.312;9.246;2022-12-05T17:14:16;20.40;;;10.38;;
1753;SDS011;58380;48.312;9.246;2022-12-05T17:16:43;30.35;;;14.00;;
1753;SDS011;58380;48.312;9.246;2022-12-05T17:19:12;42.47;;;18.65;;
1753;SDS011;58380;48.312;9.246;2022-12-05T17:21:38;33.88;;;15.82;;
1753;SDS011;58380;48.312;9.246;2022-12-05T17:24:08;24.80;;;12.98;;
1753;SDS011;58380;48.312;9.246;2022-12-05T17:26:40;25.70;;;12.48;;
1753;SDS011;58380;48.312;9.246;2022-12-05T17:29:05;19.20;;;10.67;;
1753;SDS011;58380;48.312;9.246;2022-12-05T17:31:32;21.00;;;10.88;;
1753;SDS011;58380;48.312;9.246;2022-12-05T17:33:58;17.13;;;8.27;;
1753;SDS011;58380;48.312;9.246;2022-12-05T17:36:23;14.63;;;8.10;;
1753;SDS011;58380;48.312;9.246;2022-12-05T17:38:49;14.97;;;8.47;;
1753;SDS011;58380;48.312;9.246;2022-12-05T17:41:15;17.73;;;8.87;;
1753;SDS011;58380;48.312;9.246;2022-12-05T17:43:45;15.23;;;8.05;;
1753;SDS011;58380;48.312;9.246;2022-12-05T17:46:21;18.48;;;9.15;;
1753;SDS011;58380;48.312;9.246;2022-12-05T17:48:48;17.90;;;10.20;;
1753;SDS011;58380;48.312;9.246;2022-12-05T17:51:15;19.90;;;10.23;;
1753;SDS011;58380;48.312;9.246;2022-12-05T17:53:43;18.77;;;10.45;;
1753;SDS011;58380;48.312;9.246;2022-12-05T17:56:09;19.10;;;9.45;;
1753;SDS011;58380;48.312;9.246;2022-12-05T17:58:36;12.75;;;7.93;;
1753;SDS011;58380;48.312;9.246;2022-12-05T18:01:01;14.77;;;7.97;;
1753;SDS011;58380;48.312;9.246;2022-12-05T18:03:27;15.70;;;7.68;;
1753;SDS011;58380;48.312;9.246;2022-12-05T18:05:53;13.57;;;7.25;;
1753;SDS011;58380;48.312;9.246;2022-12-05T18:08:19;12.37;;;7.63;;
1753;SDS011;58380;48.312;9.246;2022-12-05T18:10:46;11.93;;;7.47;;
1753;SDS011;58380;48.312;9.246;2022-12-05T18:13:13;15.15;;;8.18;;
1753;SDS011;58380;48.312;9.246;2022-12-05T18:15:40;19.05;;;10.85;;
1753;SDS011;58380;48.312;9.246;2022-12-05T18:18:08;11.95;;;6.28;;
1753;SDS011;58380;48.312;9.246;2022-12-05T18:20:41;11.18;;;6.55;;
1753;SDS011;58380;48.312;9.246;2022-12-05T18:23:06;10.75;;;5.50;;
1753;SDS011;58380;48.312;9.246;2022-12-05T18:25:32;13.33;;;7.33;;
1753;SDS011;58380;48.312;9.246;2022-12-05T18:27:57;16.07;;;8.93;;
1753;SDS011;58380;48.312;9.246;2022-12-05T18:30:23;67.68;;;31.00;;
1753;SDS011;58380;48.312;9.246;2022-12-05T18:32:49;58.50;;;27.00;;
1753;SDS011;58380;48.312;9.246;2022-12-05T18:35:14;54.83;;;26.13;;
1753;SDS011;58380;48.312;9.246;2022-12-05T18:37:40;43.15;;;20.05;;
1753;SDS011;58380;48.312;9.246;2022-12-05T18:40:06;44.83;;;21.13;;
1753;SDS011;58380;48.312;9.246;2022-12-05T18:42:36;51.20;;;24.05;;
1753;SDS011;58380;48.312;9.246;2022-12-05T18:45:02;29.67;;;15.13;;
1753;SDS011;58380;48.312;9.246;2022-12-05T18:47:28;19.33;;;10.07;;
1753;SDS011;58380;48.312;9.246;2022-12-05T18:49:53;18.80;;;10.40;;
1753;SDS011;58380;48.312;9.246;2022-12-05T18:52:19;16.67;;;9.60;;
1753;SDS011;58380;48.312;9.246;2022-12-05T18:54:44;19.37;;;9.73;;
1753;SDS011;58380;48.312;9.246;2022-12-05T18:57:10;15.83;;;9.43;;
1753;SDS011;58380;48.312;9.246;2022-12-05T18:59:35;24.07;;;10.00;;
1753;SDS011;58380;48.312;9.246;2022-12-05T19:02:01;30.98;;;14.60;;
1753;SDS011;58380;48.312;9.246;2022-12-05T19:04:28;27.40;;;13.15;;
1753;SDS011;58380;48.312;9.246;2022-12-05T19:06:56;31.37;;;14.57;;
1753;SDS011;58380;48.312;9.246;2022-12-05T19:09:28;22.30;;;10.57;;
1753;SDS011;58380;48.312;9.246;2022-12-05T19:11:56;20.42;;;10.63;;
1753;SDS011;58380;48.312;9.246;2022-12-05T19:14:24;31.67;;;14.57;;
1753;SDS011;58380;48.312;9.246;2022-12-05T19:16:52;36.53;;;18.48;;
1753;SDS011;58380;48.312;9.246;2022-12-05T19:19:20;38.60;;;20.65;;
1753;SDS011;58380;48.312;9.246;2022-12-05T19:21:45;39.50;;;19.10;;
1753;SDS011;58380;48.312;9.246;2022-12-05T19:24:12;32.25;;;17.17;;
1753;SDS011;58380;48.312;9.246;2022-12-05T19:26:41;33.05;;;17.38;;
1753;SDS011;58380;48.312;9.246;2022-12-05T19:29:07;22.33;;;12.45;;
1753;SDS011;58380;48.312;9.246;2022-12-05T19:31:35;22.45;;;11.82;;
1753;SDS011;58380;48.312;9.246;2022-12-05T19:34:01;18.40;;;10.80;;
1753;SDS011;58380;48.312;9.246;2022-12-05T19:38:59;20.30;;;10.85;;
1753;SDS011;58380;48.312;9.246;2022-12-05T19:41:27;25.50;;;13.70;;
1753;SDS011;58380;48.312;9.246;2022-12-05T19:43:53;20.08;;;11.15;;
1753;SDS011;58380;48.312;9.246;2022-12-05T19:46:23;22.02;;;12.05;;
1753;SDS011;58380;48.312;9.246;2022-12-05T19:48:58;21.65;;;11.45;;
1753;SDS011;58380;48.312;9.246;2022-12-05T19:51:28;22.58;;;11.85;;
1753;SDS011;58380;48.312;9.246;2022-12-05T19:53:56;25.00;;;12.63;;
1753;SDS011;58380;48.312;9.246;2022-12-05T19:56:24;20.88;;;11.98;;
1753;SDS011;58380;48.312;9.246;2022-12-05T19:58:52;23.88;;;12.88;;
1753;SDS011;58380;48.312;9.246;2022-12-05T20:01:21;21.55;;;12.25;;
1753;SDS011;58380;48.312;9.246;2022-12-05T20:03:51;22.73;;;11.75;;
1753;SDS011;58380;48.312;9.246;2022-12-05T20:06:20;21.83;;;12.07;;
1753;SDS011;58380;48.312;9.246;2022-12-05T20:08:47;21.48;;;11.23;;
1753;SDS011;58380;48.312;9.246;2022-12-05T20:11:17;20.15;;;11.00;;
1753;SDS011;58380;48.312;9.246;2022-12-05T20:13:46;20.63;;;11.15;;
1753;SDS011;58380;48.312;9.246;2022-12-05T20:16:12;22.83;;;12.07;;
1753;SDS011;58380;48.312;9.246;2022-12-05T20:18:42;22.65;;;11.88;;
1753;SDS011;58380;48.312;9.246;2022-12-05T20:21:08;26.40;;;13.85;;
1753;SDS011;58380;48.312;9.246;2022-12-05T20:23:36;25.83;;;14.10;;
1753;SDS011;58380;48.312;9.246;2022-12-05T20:26:04;27.95;;;13.88;;
1753;SDS011;58380;48.312;9.246;2022-12-05T20:28:36;23.35;;;12.63;;
1753;SDS011;58380;48.312;9.246;2022-12-05T20:33:35;32.47;;;13.15;;
1753;SDS011;58380;48.312;9.246;2022-12-05T20:38:32;40.92;;;12.80;;
1753;SDS011;58380;48.312;9.246;2022-12-05T20:43:29;47.00;;;14.68;;
1753;SDS011;58380;48.312;9.246;2022-12-05T20:45:54;46.87;;;13.87;;
1753;SDS011;58380;48.312;9.246;2022-12-05T20:48:21;104.38;;;17.77;;
1753;SDS011;58380;48.312;9.246;2022-12-05T20:50:52;214.70;;;23.13;;
1753;SDS011;58380;48.312;9.246;2022-12-05T20:53:18;52.75;;;14.57;;
1753;SDS011;58380;48.312;9.246;2022-12-05T20:55:45;56.92;;;14.00;;
1753;SDS011;58380;48.312;9.246;2022-12-05T20:58:10;60.90;;;15.13;;
1753;SDS011;58380;48.312;9.246;2022-12-05T21:00:36;70.57;;;16.53;;
1753;SDS011;58380;48.312;9.246;2022-12-05T21:03:01;50.80;;;16.27;;
1753;SDS011;58380;48.312;9.246;2022-12-05T21:05:27;35.70;;;15.87;;
1753;SDS011;58380;48.312;9.246;2022-12-05T21:07:52;77.03;;;19.67;;
1753;SDS011;58380;48.312;9.246;2022-12-05T21:10:18;35.17;;;16.33;;
1753;SDS011;58380;48.312;9.246;2022-12-05T21:12:43;39.73;;;16.37;;
1753;SDS011;58380;48.312;9.246;2022-12-05T21:15:08;38.53;;;17.17;;
1753;SDS011;58380;48.312;9.246;2022-12-05T21:20:01;35.63;;;16.13;;
1753;SDS011;58380;48.312;9.246;2022-12-05T21:22:27;35.42;;;14.88;;
1753;SDS011;58380;48.312;9.246;2022-12-05T21:24:52;30.13;;;13.73;;
1753;SDS011;58380;48.312;9.246;2022-12-05T21:27:17;27.43;;;13.23;;
1753;SDS011;58380;48.312;9.246;2022-12-05T21:29:44;27.00;;;12.95;;
1753;SDS011;58380;48.312;9.246;2022-12-05T21:32:09;24.53;;;12.90;;
1753;SDS011;58380;48.312;9.246;2022-12-05T21:34:35;25.53;;;13.27;;
1753;SDS011;58380;48.312;9.246;2022-12-05T21:37:01;19.95;;;12.35;;
1753;SDS011;58380;48.312;9.246;2022-12-05T21:39:27;25.43;;;12.57;;
1753;SDS011;58380;48.312;9.246;2022-12-05T21:41:52;21.90;;;12.80;;
1753;SDS011;58380;48.312;9.246;2022-12-05T21:44:18;21.77;;;12.50;;
1753;SDS011;58380;48.312;9.246;2022-12-05T21:46:44;21.63;;;12.50;;
1753;SDS011;58380;48.312;9.246;2022-12-05T21:49:10;21.52;;;12.00;;
1753;SDS011;58380;48.312;9.246;2022-12-05T21:51:35;21.00;;;11.77;;
1753;SDS011;58380;48.312;9.246;2022-12-05T21:54:01;19.27;;;11.63;;
1753;SDS011;58380;48.312;9.246;2022-12-05T21:58:53;19.50;;;11.68;;
1753;SDS011;58380;48.312;9.246;2022-12-05T22:01:20;19.00;;;11.25;;
1753;SDS011;58380;48.312;9.246;2022-12-05T22:03:52;23.33;;;12.25;;
1753;SDS011;58380;48.312;9.246;2022-12-05T22:06:23;22.52;;;12.30;;
1753;SDS011;58380;48.312;9.246;2022-12-05T22:08:48;20.87;;;11.97;;
1753;SDS011;58380;48.312;9.246;2022-12-05T22:11:14;20.00;;;11.33;;
1753;SDS011;58380;48.312;9.246;2022-12-05T22:13:44;27.75;;;13.98;;
1753;SDS011;58380;48.312;9.246;2022-12-05T22:16:11;26.20;;;13.27;;
1753;SDS011;58380;48.312;9.246;2022-12-05T22:18:37;24.45;;;12.13;;
